Time;durP1;ratioP1;P1;durP2;ratioP2;P2;SDS_P1;SDS_P2;PMS_P1;PMS_P2;Temp;Humidity;BMP_temperature;BMP_pressure;BME280_temperature;BME280_humidity;BME280_pressure;Samples;Min_cycle;Max_cycle;Signal;HPM_P1;HPM_P2
2022/04/07 00:00:20;;;;;;;18.38;4.25;;;9.70;99.90;;;;;;5029198;28;20042;-69
2022/04/07 00:02:46;;;;;;;17.92;4.38;;;9.70;99.90;;;;;;5018682;28;20508;-69
2022/04/07 00:05:12;;;;;;;22.10;4.65;;;9.60;99.90;;;;;;5020353;28;20057;-69
2022/04/07 00:07:38;;;;;;;20.23;4.15;;;9.60;99.90;;;;;;5008835;28;20046;-69
2022/04/07 00:10:04;;;;;;;19.42;5.05;;;9.60;99.90;;;;;;5030435;28;20068;-70
2022/04/07 00:12:32;;;;;;;28.48;6.03;;;9.60;99.90;;;;;;5025381;28;20038;-69
2022/04/07 00:14:59;;;;;;;23.42;6.15;;;9.60;99.90;;;;;;5018947;28;20042;-69
2022/04/07 00:17:25;;;;;;;34.20;5.93;;;9.60;99.90;;;;;;5015319;28;20394;-69
2022/04/07 00:19:51;;;;;;;36.03;7.72;;;9.60;99.90;;;;;;5030760;28;20046;-69
2022/04/07 00:22:17;;;;;;;31.08;7.55;;;9.60;99.90;;;;;;5011614;28;20033;-69
2022/04/07 00:24:43;;;;;;;35.58;6.25;;;9.60;99.90;;;;;;5023867;28;20049;-69
2022/04/07 00:27:09;;;;;;;42.25;7.18;;;9.60;99.90;;;;;;5013784;28;20391;-69
2022/04/07 00:29:34;;;;;;;28.88;6.72;;;9.50;99.90;;;;;;5025805;28;20076;-69
2022/04/07 00:32:03;;;;;;;27.77;5.55;;;9.50;99.90;;;;;;5029692;28;20041;-69
2022/04/07 00:34:29;;;;;;;35.17;5.70;;;9.50;99.90;;;;;;5016657;28;20495;-69
2022/04/07 00:36:55;;;;;;;27.42;6.15;;;9.50;99.90;;;;;;5011687;28;20133;-69
2022/04/07 00:39:21;;;;;;;19.65;5.22;;;9.60;99.90;;;;;;5011535;28;20053;-69
2022/04/07 00:41:46;;;;;;;33.17;6.07;;;9.60;99.90;;;;;;5016081;28;20073;-69
2022/04/07 00:44:12;;;;;;;30.90;6.05;;;9.60;99.90;;;;;;5028634;28;20155;-69
2022/04/07 00:46:38;;;;;;;26.02;5.30;;;9.60;99.90;;;;;;5016096;28;20553;-69
2022/04/07 00:49:05;;;;;;;38.60;6.90;;;9.50;99.90;;;;;;5023148;28;20052;-69
2022/04/07 00:51:32;;;;;;;36.20;7.32;;;9.50;99.90;;;;;;5020951;28;20052;-69
2022/04/07 00:53:57;;;;;;;40.20;7.22;;;9.50;99.90;;;;;;5021807;28;20056;-69
2022/04/07 00:56:25;;;;;;;36.80;7.88;;;9.50;99.90;;;;;;5028880;28;20053;-69
2022/04/07 00:58:51;;;;;;;38.05;7.00;;;9.40;99.90;;;;;;5022178;28;20049;-69
2022/04/07 01:01:20;;;;;;;35.30;7.97;;;9.40;99.90;;;;;;5025831;28;20460;-69
2022/04/07 01:03:47;;;;;;;40.97;7.22;;;9.40;99.90;;;;;;5028999;28;20096;-69
2022/04/07 01:06:12;;;;;;;23.58;6.20;;;9.40;99.90;;;;;;5028678;28;20459;-69
2022/04/07 01:08:39;;;;;;;39.85;6.80;;;9.40;99.90;;;;;;5014257;28;20053;-70
2022/04/07 01:11:04;;;;;;;37.70;8.32;;;9.40;99.90;;;;;;5028875;28;20037;-69
2022/04/07 01:13:47;;;;;;;30.60;6.43;;;9.40;99.90;;;;;;5028564;28;20045;-69
2022/04/07 01:16:14;;;;;;;34.63;6.97;;;9.50;99.90;;;;;;5016677;28;20116;-69
2022/04/07 01:18:40;;;;;;;32.75;6.53;;;9.50;99.90;;;;;;5027159;28;20077;-69
2022/04/07 01:21:08;;;;;;;38.70;6.90;;;9.50;99.90;;;;;;5029663;28;20041;-69
2022/04/07 01:23:35;;;;;;;27.50;6.03;;;9.50;99.90;;;;;;5019202;28;20128;-68
2022/04/07 01:26:02;;;;;;;30.92;7.05;;;9.60;99.90;;;;;;5021428;28;20041;-69
2022/04/07 01:28:28;;;;;;;49.65;7.68;;;9.60;99.90;;;;;;5022939;28;20100;-69
2022/04/07 01:30:53;;;;;;;27.20;6.10;;;9.60;99.90;;;;;;5019295;28;20045;-69
2022/04/07 01:33:19;;;;;;;43.40;6.82;;;9.60;99.90;;;;;;5023905;28;20041;-69
2022/04/07 01:35:46;;;;;;;47.53;9.73;;;9.60;99.90;;;;;;5023496;28;20034;-68
2022/04/07 01:38:12;;;;;;;36.25;7.47;;;9.60;99.90;;;;;;5028204;28;20041;-68
2022/04/07 01:40:38;;;;;;;31.80;7.43;;;9.60;99.90;;;;;;5019818;28;20038;-69
2022/04/07 01:43:07;;;;;;;37.53;8.13;;;9.60;99.90;;;;;;5010993;28;20041;-68
2022/04/07 01:45:34;;;;;;;36.30;6.65;;;9.60;99.90;;;;;;5020740;28;20042;-68
2022/04/07 01:48:02;;;;;;;39.10;8.70;;;9.60;99.90;;;;;;5033294;28;20073;-69
2022/04/07 01:50:29;;;;;;;36.15;8.73;;;9.60;99.90;;;;;;5031960;28;20096;-68
2022/04/07 01:52:56;;;;;;;35.35;7.60;;;9.60;99.90;;;;;;5018123;28;20140;-68
2022/04/07 01:55:23;;;;;;;38.78;7.55;;;9.60;99.90;;;;;;5029526;28;20042;-68
2022/04/07 01:57:49;;;;;;;32.88;7.20;;;9.60;99.90;;;;;;5032965;28;20137;-69
2022/04/07 02:00:15;;;;;;;45.35;9.18;;;9.60;99.90;;;;;;5015247;28;20128;-69
2022/04/07 02:02:41;;;;;;;35.33;6.30;;;9.50;99.90;;;;;;5031384;28;20409;-69
2022/04/07 02:05:09;;;;;;;39.15;7.97;;;9.60;99.90;;;;;;5032561;28;20077;-68
2022/04/07 02:07:35;;;;;;;49.15;8.02;;;9.50;99.90;;;;;;5023464;28;20069;-69
2022/04/07 02:10:03;;;;;;;49.42;8.48;;;9.50;99.90;;;;;;5022950;28;20042;-69
2022/04/07 02:12:29;;;;;;;40.60;9.57;;;9.50;99.90;;;;;;5021384;28;20133;-69
2022/04/07 02:14:59;;;;;;;45.13;8.52;;;9.40;99.90;;;;;;5022046;28;20084;-68
2022/04/07 02:17:25;;;;;;;27.15;7.35;;;9.50;99.90;;;;;;5032075;28;20370;-68
2022/04/07 02:19:54;;;;;;;40.80;7.32;;;9.50;99.90;;;;;;5032019;28;20053;-68
2022/04/07 02:22:19;;;;;;;42.42;7.95;;;9.50;99.90;;;;;;5013687;28;20133;-68
2022/04/07 02:24:47;;;;;;;34.65;8.40;;;9.60;99.90;;;;;;5031053;28;20120;-68
2022/04/07 02:27:12;;;;;;;40.38;7.55;;;9.50;99.90;;;;;;5024607;28;20045;-68
2022/04/07 02:29:38;;;;;;;36.13;7.18;;;9.50;99.90;;;;;;5020502;28;20091;-68
2022/04/07 02:32:05;;;;;;;34.28;7.07;;;9.50;99.90;;;;;;5021497;28;20521;-68
2022/04/07 02:34:30;;;;;;;38.83;8.65;;;9.50;99.90;;;;;;5017388;28;20421;-68
2022/04/07 02:36:56;;;;;;;36.70;7.22;;;9.50;99.90;;;;;;5032375;28;20057;-68
2022/04/07 02:39:22;;;;;;;47.78;9.05;;;9.60;99.90;;;;;;5018864;28;20060;-68
2022/04/07 02:41:48;;;;;;;41.33;7.57;;;9.50;99.90;;;;;;5017254;28;20096;-68
2022/04/07 02:44:13;;;;;;;30.80;6.70;;;9.60;99.90;;;;;;5022631;28;20054;-68
2022/04/07 02:46:39;;;;;;;37.50;7.53;;;9.50;99.90;;;;;;5017136;28;20048;-68
2022/04/07 02:49:05;;;;;;;38.92;6.25;;;9.60;99.90;;;;;;5014370;28;20079;-68
2022/04/07 02:51:31;;;;;;;33.03;6.97;;;9.60;99.90;;;;;;5016247;28;20116;-68
2022/04/07 02:53:58;;;;;;;33.47;7.78;;;9.60;99.90;;;;;;5025471;28;20055;-68
2022/04/07 02:56:28;;;;;;;29.33;6.47;;;9.60;99.90;;;;;;5016868;28;20528;-69
2022/04/07 02:58:54;;;;;;;38.13;7.90;;;9.60;99.90;;;;;;5022842;28;20513;-68
2022/04/07 03:01:20;;;;;;;32.33;6.55;;;9.60;99.90;;;;;;5030963;28;20041;-68
2022/04/07 03:03:45;;;;;;;37.60;7.90;;;9.60;99.90;;;;;;5024903;28;20497;-68
2022/04/07 03:06:11;;;;;;;39.90;6.75;;;9.60;99.90;;;;;;5029458;28;20052;-68
2022/04/07 03:08:36;;;;;;;32.35;8.40;;;9.60;99.90;;;;;;5013392;28;20060;-68
2022/04/07 03:11:03;;;;;;;32.45;7.63;;;9.60;99.90;;;;;;5029873;28;20049;-68
2022/04/07 03:13:28;;;;;;;35.45;8.52;;;9.60;99.90;;;;;;5031158;28;20088;-69
2022/04/07 03:15:54;;;;;;;43.72;8.30;;;9.60;99.90;;;;;;5014545;28;20041;-68
2022/04/07 03:18:20;;;;;;;31.48;6.68;;;9.70;99.90;;;;;;5028544;28;20453;-68
2022/04/07 03:20:45;;;;;;;38.05;8.13;;;9.70;99.90;;;;;;5016529;28;20104;-68
2022/04/07 03:23:11;;;;;;;32.13;6.55;;;9.70;99.90;;;;;;5019366;28;20049;-68
2022/04/07 03:25:37;;;;;;;43.97;7.68;;;9.70;99.90;;;;;;5024486;28;20041;-68
2022/04/07 03:28:06;;;;;;;43.95;9.95;;;9.80;99.90;;;;;;5030161;28;20057;-67
2022/04/07 03:30:31;;;;;;;52.33;8.77;;;9.90;99.90;;;;;;5030350;28;20121;-68
2022/04/07 03:32:58;;;;;;;32.08;6.60;;;9.90;99.90;;;;;;5021798;28;20125;-68
2022/04/07 03:35:24;;;;;;;32.60;6.82;;;9.90;99.90;;;;;;5016026;28;20045;-68
2022/04/07 03:37:50;;;;;;;32.05;6.90;;;9.90;99.90;;;;;;5018449;28;20133;-68
2022/04/07 03:40:16;;;;;;;27.35;6.28;;;9.80;99.90;;;;;;5028761;28;20116;-68
2022/04/07 03:42:41;;;;;;;36.03;8.35;;;9.80;99.90;;;;;;5030599;28;20125;-68
2022/04/07 03:45:07;;;;;;;35.03;6.88;;;9.80;99.90;;;;;;5020778;28;20092;-68
2022/04/07 03:47:33;;;;;;;42.67;8.93;;;9.70;99.90;;;;;;5020112;28;20037;-68
2022/04/07 03:49:58;;;;;;;38.05;8.38;;;9.70;99.90;;;;;;5019342;28;20399;-68
2022/04/07 03:52:24;;;;;;;41.65;9.32;;;9.60;99.90;;;;;;5024548;28;20057;-68
2022/04/07 03:54:50;;;;;;;37.13;7.55;;;9.60;99.90;;;;;;5024461;28;20049;-68
2022/04/07 03:57:16;;;;;;;32.92;7.95;;;9.50;99.90;;;;;;5020419;28;20050;-69
2022/04/07 03:59:42;;;;;;;40.60;8.93;;;9.50;99.90;;;;;;5019783;28;20092;-69
2022/04/07 04:02:10;;;;;;;57.35;9.80;;;9.50;99.90;;;;;;5026889;28;20049;-70
2022/04/07 04:04:36;;;;;;;48.95;8.45;;;9.40;99.90;;;;;;5012330;28;20050;-69
2022/04/07 04:07:02;;;;;;;59.05;11.07;;;9.30;99.90;;;;;;5010936;28;20132;-69
2022/04/07 04:09:27;;;;;;;38.50;8.38;;;9.30;99.90;;;;;;5025919;28;20148;-69
2022/04/07 04:11:53;;;;;;;52.95;9.82;;;9.30;99.90;;;;;;5028559;28;20060;-69
2022/04/07 04:14:19;;;;;;;57.95;10.93;;;9.30;99.90;;;;;;5012426;28;20034;-70
2022/04/07 04:16:45;;;;;;;48.40;10.73;;;9.30;99.90;;;;;;5018005;28;20132;-70
2022/04/07 04:19:11;;;;;;;54.22;10.27;;;9.20;99.90;;;;;;5015908;28;20626;-69
2022/04/07 04:21:36;;;;;;;53.92;10.95;;;9.30;99.90;;;;;;5017927;28;20083;-69
2022/04/07 04:24:02;;;;;;;62.05;11.60;;;9.20;99.90;;;;;;5019726;28;20061;-69
2022/04/07 04:26:28;;;;;;;54.13;10.50;;;9.30;99.90;;;;;;5011990;28;20053;-69
2022/04/07 04:28:55;;;;;;;47.30;9.32;;;9.30;99.90;;;;;;5027438;28;20041;-69
2022/04/07 04:31:24;;;;;;;54.10;12.73;;;9.20;99.90;;;;;;5017208;28;20489;-69
2022/04/07 04:33:51;;;;;;;57.13;11.02;;;9.20;99.90;;;;;;5028538;28;20437;-69
2022/04/07 04:36:17;;;;;;;57.55;12.05;;;9.20;99.90;;;;;;5029906;28;20049;-69
2022/04/07 04:38:43;;;;;;;58.55;11.73;;;9.20;99.90;;;;;;5025027;28;20065;-69
2022/04/07 04:41:09;;;;;;;47.80;10.05;;;9.20;99.90;;;;;;5022026;28;20050;-69
2022/04/07 04:43:35;;;;;;;61.50;13.45;;;9.30;99.90;;;;;;5027501;28;20609;-69
2022/04/07 04:46:00;;;;;;;53.28;10.50;;;9.30;99.90;;;;;;5015185;28;20437;-69
2022/04/07 04:48:26;;;;;;;54.13;8.93;;;9.20;99.90;;;;;;5009248;28;20092;-69
2022/04/07 04:50:51;;;;;;;53.15;11.25;;;9.20;99.90;;;;;;5011794;28;20138;-70
2022/04/07 04:53:17;;;;;;;57.15;9.75;;;9.20;99.90;;;;;;5024683;28;20059;-70
2022/04/07 04:55:42;;;;;;;49.92;10.95;;;9.10;99.90;;;;;;5026053;28;20080;-69
2022/04/07 04:58:08;;;;;;;52.80;9.95;;;9.10;99.90;;;;;;5027346;28;20099;-69
2022/04/07 05:00:33;;;;;;;42.53;8.43;;;8.90;99.90;;;;;;5018554;28;20425;-69
2022/04/07 05:02:59;;;;;;;34.70;7.13;;;8.80;99.90;;;;;;5029263;28;20068;-69
2022/04/07 05:05:24;;;;;;;30.63;6.78;;;8.60;99.90;;;;;;5019700;28;20180;-69
2022/04/07 05:07:50;;;;;;;22.80;4.90;;;8.50;99.90;;;;;;5016854;28;20052;-70
2022/04/07 05:10:15;;;;;;;23.33;4.18;;;8.30;99.90;;;;;;5029158;28;20113;-69
2022/04/07 05:12:41;;;;;;;17.95;3.40;;;8.10;99.90;;;;;;5030216;28;20507;-69
2022/04/07 05:15:07;;;;;;;27.45;4.75;;;8.00;99.90;;;;;;5018057;28;20046;-69
2022/04/07 05:17:33;;;;;;;16.73;4.10;;;7.90;99.90;;;;;;5012960;28;20033;-69
2022/04/07 05:19:59;;;;;;;13.43;2.88;;;7.80;99.90;;;;;;5016034;28;20048;-69
2022/04/07 05:22:24;;;;;;;11.73;1.92;;;7.60;99.90;;;;;;5014440;28;20444;-69
2022/04/07 05:24:50;;;;;;;12.88;2.78;;;7.50;99.90;;;;;;5032609;28;20045;-68
2022/04/07 05:27:17;;;;;;;17.05;2.55;;;7.50;99.90;;;;;;5022195;28;20037;-68
2022/04/07 05:29:42;;;;;;;7.80;1.67;;;7.40;99.90;;;;;;5016662;28;20050;-69
2022/04/07 05:32:08;;;;;;;10.90;2.30;;;7.30;99.90;;;;;;5033480;28;20054;-69
2022/04/07 05:34:34;;;;;;;11.57;2.35;;;7.30;99.90;;;;;;5023482;28;20077;-69
2022/04/07 05:36:59;;;;;;;18.23;2.50;;;7.20;99.90;;;;;;5013163;28;20100;-70
2022/04/07 05:39:25;;;;;;;13.13;2.85;;;7.10;99.90;;;;;;5027375;28;20044;-69
2022/04/07 05:41:51;;;;;;;13.15;2.25;;;7.00;99.90;;;;;;5033719;28;20049;-69
2022/04/07 05:44:16;;;;;;;9.45;2.40;;;7.00;99.90;;;;;;5023337;28;20045;-69
2022/04/07 05:46:42;;;;;;;7.57;2.05;;;7.00;99.90;;;;;;5031303;28;20124;-69
2022/04/07 05:49:10;;;;;;;13.75;1.80;;;6.90;99.90;;;;;;5033098;28;20046;-69
2022/04/07 05:51:36;;;;;;;7.65;1.45;;;6.90;99.90;;;;;;5020912;28;20413;-68
2022/04/07 05:54:02;;;;;;;7.90;1.48;;;6.80;99.90;;;;;;5026259;28;20149;-68
2022/04/07 05:56:27;;;;;;;17.40;2.45;;;6.80;99.90;;;;;;5032934;28;20053;-67
2022/04/07 05:58:54;;;;;;;15.40;1.80;;;6.80;99.90;;;;;;5031405;28;20033;-67
2022/04/07 06:01:20;;;;;;;9.55;1.80;;;6.80;99.90;;;;;;5031259;28;20037;-67
2022/04/07 06:03:45;;;;;;;10.10;2.15;;;6.80;99.90;;;;;;5032991;28;20605;-67
2022/04/07 06:06:11;;;;;;;12.43;1.75;;;6.80;99.90;;;;;;5019867;28;20056;-67
2022/04/07 06:08:36;;;;;;;12.90;2.15;;;6.70;99.90;;;;;;5016259;28;20037;-67
2022/04/07 06:11:02;;;;;;;10.98;2.35;;;6.70;99.90;;;;;;5028065;28;20068;-67
2022/04/07 06:13:28;;;;;;;17.23;2.67;;;6.70;99.90;;;;;;5028032;28;20077;-67
2022/04/07 06:15:53;;;;;;;8.88;2.03;;;6.60;99.90;;;;;;5023979;28;20038;-67
2022/04/07 06:18:19;;;;;;;8.52;2.22;;;6.70;99.90;;;;;;5028155;28;20048;-68
2022/04/07 06:20:46;;;;;;;8.80;2.00;;;6.70;99.90;;;;;;5026177;28;20067;-67
2022/04/07 06:23:12;;;;;;;12.73;2.28;;;6.70;99.90;;;;;;5022879;28;20056;-67
2022/04/07 06:25:37;;;;;;;11.23;1.83;;;6.70;99.90;;;;;;5027763;28;20041;-67
2022/04/07 06:28:04;;;;;;;11.35;2.75;;;6.70;99.90;;;;;;5026921;28;20045;-68
2022/04/07 06:30:30;;;;;;;15.90;1.98;;;6.70;99.90;;;;;;5022438;28;20049;-68
2022/04/07 06:32:56;;;;;;;9.48;1.90;;;6.70;99.90;;;;;;5028494;28;20052;-68
2022/04/07 06:35:22;;;;;;;22.25;2.63;;;6.70;99.90;;;;;;5011014;28;20049;-68
2022/04/07 06:37:52;;;;;;;10.30;2.20;;;6.70;99.90;;;;;;5012709;28;20100;-68
2022/04/07 06:40:20;;;;;;;16.63;3.00;;;6.70;99.90;;;;;;5011425;28;20520;-68
2022/04/07 06:42:46;;;;;;;15.57;2.03;;;6.80;99.90;;;;;;5025121;28;20045;-68
2022/04/07 06:45:12;;;;;;;12.57;2.58;;;6.80;99.90;;;;;;5031596;28;20041;-68
2022/04/07 06:47:40;;;;;;;9.95;2.67;;;6.80;99.90;;;;;;5029902;28;20802;-68
2022/04/07 06:50:08;;;;;;;17.00;3.42;;;6.80;99.90;;;;;;5016951;28;20073;-69
2022/04/07 06:52:34;;;;;;;12.10;2.03;;;6.80;99.90;;;;;;5011452;28;20078;-69
2022/04/07 06:55:00;;;;;;;10.70;2.30;;;6.90;99.90;;;;;;5011663;28;20052;-68
2022/04/07 06:57:25;;;;;;;11.07;2.42;;;6.90;99.90;;;;;;5030907;28;20496;-69
2022/04/07 06:59:51;;;;;;;14.48;3.47;;;6.90;99.90;;;;;;5032119;28;20048;-69
2022/04/07 07:02:16;;;;;;;13.57;1.67;;;6.90;99.90;;;;;;5016268;28;20100;-69
2022/04/07 07:04:42;;;;;;;12.15;2.42;;;7.00;99.90;;;;;;5014740;28;20049;-69
2022/04/07 07:07:10;;;;;;;9.13;1.98;;;7.00;99.90;;;;;;5031856;28;20046;-69
2022/04/07 07:09:35;;;;;;;21.50;3.92;;;7.10;99.90;;;;;;5014525;28;20050;-69
2022/04/07 07:12:01;;;;;;;18.13;3.30;;;7.10;99.90;;;;;;5012047;28;20061;-69
2022/04/07 07:14:26;;;;;;;15.85;3.00;;;7.00;99.90;;;;;;5011540;28;20046;-69
2022/04/07 07:16:52;;;;;;;14.80;2.80;;;7.10;99.90;;;;;;5010978;28;20073;-69
2022/04/07 07:19:18;;;;;;;8.57;1.70;;;7.10;99.90;;;;;;5011939;28;20057;-69
2022/04/07 07:21:43;;;;;;;10.10;2.03;;;7.10;99.90;;;;;;5011592;28;20042;-69
2022/04/07 07:24:09;;;;;;;8.02;1.83;;;7.10;99.90;;;;;;5009490;28;20045;-68
2022/04/07 07:26:34;;;;;;;14.85;2.40;;;7.20;99.90;;;;;;5011418;28;20053;-69
2022/04/07 07:29:01;;;;;;;9.65;2.10;;;7.30;99.90;;;;;;5012097;28;20060;-69
2022/04/07 07:31:27;;;;;;;9.20;1.95;;;7.30;99.90;;;;;;5017648;28;20041;-68
2022/04/07 07:33:52;;;;;;;14.30;2.92;;;7.40;99.90;;;;;;5015466;28;20053;-69
2022/04/07 07:36:18;;;;;;;13.88;2.53;;;7.50;99.90;;;;;;5010778;28;20050;-68
2022/04/07 07:38:43;;;;;;;15.05;2.85;;;7.60;99.90;;;;;;5019025;28;20045;-68
2022/04/07 07:41:09;;;;;;;11.43;1.90;;;7.70;99.90;;;;;;5012851;28;20041;-68
2022/04/07 07:43:34;;;;;;;18.02;2.45;;;7.80;99.90;;;;;;5009651;28;20452;-68
2022/04/07 07:46:00;;;;;;;17.10;2.53;;;7.90;99.90;;;;;;5013632;28;20077;-68
2022/04/07 07:48:29;;;;;;;15.80;3.45;;;8.10;99.90;;;;;;5010925;28;20085;-68
2022/04/07 07:50:56;;;;;;;12.35;3.05;;;8.20;99.90;;;;;;5011026;28;20444;-68
2022/04/07 07:53:21;;;;;;;16.45;2.83;;;8.30;99.90;;;;;;5009986;28;20045;-68
2022/04/07 07:55:47;;;;;;;10.93;2.58;;;8.40;99.90;;;;;;5011068;28;20115;-68
2022/04/07 07:58:14;;;;;;;10.77;3.00;;;8.50;99.90;;;;;;5010687;28;20516;-68
2022/04/07 08:00:39;;;;;;;16.88;2.55;;;8.60;99.90;;;;;;5021465;28;20084;-68
2022/04/07 08:03:05;;;;;;;12.40;2.85;;;8.60;99.90;;;;;;5012901;28;20077;-68
2022/04/07 08:05:31;;;;;;;9.82;2.38;;;8.70;99.90;;;;;;5009758;28;20478;-68
2022/04/07 08:07:56;;;;;;;25.35;3.92;;;8.80;99.90;;;;;;5021195;28;20055;-68
2022/04/07 08:10:22;;;;;;;19.65;2.60;;;8.80;99.90;;;;;;5028736;28;20100;-68
2022/04/07 08:12:47;;;;;;;13.50;2.35;;;8.80;99.90;;;;;;5017785;28;20453;-68
2022/04/07 08:15:13;;;;;;;17.23;3.50;;;8.90;99.90;;;;;;5024094;28;20049;-68
2022/04/07 08:17:38;;;;;;;16.25;3.10;;;9.10;99.90;;;;;;5020575;28;20073;-67
2022/04/07 08:20:05;;;;;;;13.18;3.28;;;9.30;99.90;;;;;;5011058;28;20038;-68
2022/04/07 08:22:31;;;;;;;12.80;2.15;;;9.60;99.90;;;;;;5019389;28;20077;-67
2022/04/07 08:24:57;;;;;;;11.20;2.03;;;9.60;99.90;;;;;;5013590;28;20501;-67
2022/04/07 08:27:26;;;;;;;11.25;2.40;;;10.10;99.90;;;;;;5009744;28;20137;-69
2022/04/07 08:29:52;;;;;;;13.68;2.42;;;10.00;99.90;;;;;;5009998;28;20057;-67
2022/04/07 08:32:18;;;;;;;11.68;2.35;;;9.90;99.90;;;;;;5013675;28;20045;-67
2022/04/07 08:34:44;;;;;;;14.18;2.45;;;9.90;99.90;;;;;;5017348;28;20140;-67
2022/04/07 08:37:09;;;;;;;15.18;2.28;;;10.10;99.90;;;;;;5026333;28;20541;-67
2022/04/07 08:39:35;;;;;;;20.08;3.75;;;10.40;99.90;;;;;;5013714;28;20061;-67
2022/04/07 08:42:02;;;;;;;14.73;2.92;;;10.20;99.90;;;;;;5010776;28;20088;-67
2022/04/07 08:44:31;;;;;;;16.85;2.42;;;10.60;99.90;;;;;;5015965;28;20046;-67
2022/04/07 08:46:58;;;;;;;13.07;2.00;;;11.10;99.90;;;;;;5016777;28;20101;-67
2022/04/07 08:49:28;;;;;;;11.63;2.63;;;11.50;99.90;;;;;;5009774;28;20049;-67
2022/04/07 08:51:54;;;;;;;10.88;2.10;;;11.10;99.90;;;;;;5009590;28;20092;-66
2022/04/07 08:54:20;;;;;;;16.05;2.40;;;11.10;99.90;;;;;;5012150;28;20061;-67
2022/04/07 08:56:47;;;;;;;19.27;2.67;;;11.00;99.90;;;;;;5010039;28;20077;-66
2022/04/07 08:59:13;;;;;;;15.15;3.92;;;10.80;99.90;;;;;;5010197;28;20049;-66
2022/04/07 09:01:39;;;;;;;19.80;3.45;;;10.50;99.90;;;;;;5008725;28;20042;-66
2022/04/07 09:04:04;;;;;;;13.85;2.63;;;10.40;99.90;;;;;;5018808;28;20042;-66
2022/04/07 09:06:34;;;;;;;22.60;3.92;;;10.20;99.90;;;;;;5029344;28;20037;-67
2022/04/07 09:09:14;;;;;;;13.27;3.35;;;10.10;99.90;;;;;;5011178;28;20103;-67
2022/04/07 09:11:40;;;;;;;17.92;2.83;;;10.10;99.90;;;;;;5015191;28;20041;-67
2022/04/07 09:14:08;;;;;;;31.50;5.00;;;10.00;99.90;;;;;;5028599;28;20052;-66
2022/04/07 09:16:38;;;;;;;15.18;2.90;;;9.90;99.90;;;;;;5016619;28;20526;-66
2022/04/07 09:19:04;;;;;;;16.88;3.28;;;9.80;99.90;;;;;;5020010;28;20046;-66
2022/04/07 09:21:31;;;;;;;12.40;3.13;;;9.80;99.90;;;;;;5014311;28;20044;-66
2022/04/07 09:24:00;;;;;;;15.02;3.22;;;9.90;99.90;;;;;;5029778;28;20042;-67
2022/04/07 09:26:27;;;;;;;18.23;3.97;;;9.90;99.90;;;;;;5027542;28;20048;-67
2022/04/07 09:28:57;;;;;;;20.15;3.67;;;9.80;99.90;;;;;;5027711;28;20072;-67
2022/04/07 09:31:23;;;;;;;14.20;3.60;;;9.80;99.90;;;;;;5029376;28;20053;-67
2022/04/07 09:33:54;;;;;;;24.48;4.55;;;9.80;99.90;;;;;;5023105;28;20409;-66
2022/04/07 09:36:21;;;;;;;20.67;3.40;;;9.80;99.90;;;;;;5008845;28;20576;-67
2022/04/07 09:38:54;;;;;;;16.40;3.35;;;10.00;99.90;;;;;;5011382;28;20053;-67
2022/04/07 09:41:21;;;;;;;11.50;3.15;;;10.00;99.90;;;;;;5027087;28;20053;-67
2022/04/07 09:43:47;;;;;;;17.33;3.60;;;10.00;99.90;;;;;;5009465;28;20457;-67
2022/04/07 09:46:15;;;;;;;15.73;3.08;;;10.40;99.90;;;;;;5018915;28;20096;-67
2022/04/07 09:48:58;;;;;;;17.58;3.67;;;10.30;99.90;;;;;;5011156;28;20046;-67
2022/04/07 09:51:25;;;;;;;13.47;3.70;;;10.10;99.90;;;;;;5010291;28;20049;-67
2022/04/07 09:53:55;;;;;;;16.00;4.32;;;10.00;99.90;;;;;;5009766;28;20061;-67
2022/04/07 09:56:24;;;;;;;13.20;3.22;;;9.90;99.90;;;;;;5017582;28;20128;-67
2022/04/07 09:58:51;;;;;;;11.43;2.35;;;9.80;99.90;;;;;;5015005;28;20405;-67
2022/04/07 10:01:16;;;;;;;13.50;2.58;;;9.50;99.90;;;;;;5008512;28;20045;-67
2022/04/07 10:03:43;;;;;;;18.00;3.15;;;9.30;99.90;;;;;;5020684;28;20049;-67
2022/04/07 10:06:11;;;;;;;19.25;4.07;;;9.20;99.90;;;;;;5016655;28;20160;-67
2022/04/07 10:08:38;;;;;;;18.25;4.05;;;9.30;99.90;;;;;;5032052;28;20048;-68
2022/04/07 10:11:05;;;;;;;29.52;5.53;;;9.30;99.90;;;;;;5013586;28;20045;-67
2022/04/07 10:13:31;;;;;;;18.65;5.13;;;9.40;99.90;;;;;;5013012;28;20536;-67
2022/04/07 10:15:58;;;;;;;22.42;4.25;;;9.50;99.90;;;;;;5012745;28;20418;-67
2022/04/07 10:18:31;;;;;;;27.83;5.13;;;9.50;99.90;;;;;;5011278;28;20501;-67
2022/04/07 10:20:58;;;;;;;21.77;3.47;;;9.60;99.90;;;;;;5030001;28;20052;-67
2022/04/07 10:23:47;;;;;;;20.95;4.75;;;9.70;99.90;;;;;;5024102;28;20059;-67
2022/04/07 10:26:14;;;;;;;23.65;5.45;;;9.80;99.90;;;;;;5027140;28;20049;-67
2022/04/07 10:28:40;;;;;;;22.52;4.97;;;9.80;99.90;;;;;;5032678;28;20072;-67
2022/04/07 10:31:15;;;;;;;19.92;4.88;;;9.70;99.90;;;;;;5021105;28;20085;-67
2022/04/07 10:33:43;;;;;;;19.55;4.03;;;9.70;99.90;;;;;;5023700;28;20045;-67
2022/04/07 10:36:12;;;;;;;20.08;5.47;;;9.60;99.90;;;;;;5027569;28;20396;-66
2022/04/07 10:38:41;;;;;;;24.80;4.80;;;9.60;99.90;;;;;;5021243;28;20095;-67
2022/04/07 10:41:07;;;;;;;24.25;4.45;;;9.60;99.90;;;;;;5019896;28;20052;-67
2022/04/07 10:43:38;;;;;;;25.30;5.20;;;9.80;99.90;;;;;;5033549;28;20050;-66
2022/04/07 10:46:05;;;;;;;17.85;4.20;;;10.00;99.90;;;;;;5025607;28;20404;-67
2022/04/07 10:48:58;;;;;;;13.85;3.88;;;10.20;99.90;;;;;;5031055;28;20616;-67
2022/04/07 10:51:42;;;;;;;22.92;4.10;;;10.60;99.90;;;;;;5018043;28;20096;-66
2022/04/07 10:54:09;;;;;;;19.02;3.78;;;10.80;99.90;;;;;;5015171;28;20102;-66
2022/04/07 10:56:35;;;;;;;22.80;4.00;;;10.90;99.90;;;;;;5031800;28;20049;-67
2022/04/07 10:59:17;;;;;;;22.80;4.35;;;10.80;99.90;;;;;;5011955;28;20489;-67
2022/04/07 11:01:44;;;;;;;24.75;5.70;;;10.60;99.90;;;;;;5012050;28;20042;-66
2022/04/07 11:04:16;;;;;;;18.88;4.32;;;10.50;99.90;;;;;;5011256;28;20058;-67
2022/04/07 11:07:19;;;;;;;15.63;3.70;;;10.40;99.90;;;;;;5012205;28;20045;-67
2022/04/07 11:09:53;;;;;;;22.25;3.72;;;10.30;99.90;;;;;;5022846;28;20042;-66
2022/04/07 11:12:29;;;;;;;21.95;4.13;;;10.40;99.90;;;;;;5028277;28;20616;-67
2022/04/07 11:15:01;;;;;;;15.88;2.75;;;10.60;99.90;;;;;;5030674;28;20049;-67
2022/04/07 11:17:41;;;;;;;30.95;5.82;;;10.50;99.90;;;;;;5023828;28;20054;-66
2022/04/07 11:20:23;;;;;;;17.83;5.50;;;10.70;99.90;;;;;;5011958;28;20046;-67
2022/04/07 11:22:51;;;;;;;24.67;3.72;;;10.90;99.90;;;;;;5010522;28;20107;-66
2022/04/07 11:25:31;;;;;;;12.23;3.45;;;11.00;99.90;;;;;;5011041;28;20077;-66
2022/04/07 11:28:17;;;;;;;18.73;4.53;;;11.10;99.90;;;;;;5011808;28;20045;-66
2022/04/07 11:30:52;;;;;;;13.88;3.40;;;11.60;99.90;;;;;;5015062;28;20068;-66
2022/04/07 11:33:23;;;;;;;21.73;4.03;;;11.40;99.90;;;;;;5013184;28;20092;-66
2022/04/07 11:36:01;;;;;;;15.25;2.95;;;11.60;99.90;;;;;;5009212;28;20057;-66
2022/04/07 11:38:31;;;;;;;10.27;2.83;;;11.80;99.90;;;;;;5014172;28;20405;-66
2022/04/07 11:41:04;;;;;;;18.75;3.30;;;11.50;99.90;;;;;;5011603;28;20050;-66
2022/04/07 11:43:32;;;;;;;11.73;2.90;;;11.50;99.90;;;;;;5009786;28;20087;-66
2022/04/07 11:45:58;;;;;;;17.17;3.63;;;11.50;99.90;;;;;;5018301;28;20045;-66
2022/04/07 11:48:33;;;;;;;11.90;2.65;;;11.50;99.90;;;;;;5010683;28;20034;-66
2022/04/07 11:51:03;;;;;;;14.82;3.20;;;11.10;99.90;;;;;;5016532;28;20046;-66
2022/04/07 11:53:29;;;;;;;19.60;5.10;;;10.90;99.90;;;;;;5020529;28;20045;-66
2022/04/07 11:55:59;;;;;;;10.70;2.35;;;10.40;99.90;;;;;;5018030;28;20050;-68
2022/04/07 11:58:28;;;;;;;13.77;3.60;;;9.50;99.90;;;;;;5017324;28;20092;-68
2022/04/07 12:00:54;;;;;;;22.25;5.32;;;9.60;99.90;;;;;;5019071;28;20493;-68
2022/04/07 12:03:20;;;;;;;29.10;5.82;;;9.90;99.90;;;;;;5013922;28;20048;-68
2022/04/07 12:05:47;;;;;;;19.92;4.13;;;9.80;99.90;;;;;;5010496;28;20045;-67
2022/04/07 12:08:14;;;;;;;13.82;2.88;;;9.80;99.90;;;;;;5020358;28;20053;-67
2022/04/07 12:10:42;;;;;;;14.88;3.33;;;9.80;99.90;;;;;;5030628;28;20053;-68
2022/04/07 12:13:08;;;;;;;11.73;2.63;;;9.70;99.90;;;;;;5030885;28;20045;-67
2022/04/07 12:15:34;;;;;;;12.43;2.13;;;9.90;99.90;;;;;;5010203;28;20045;-68
2022/04/07 12:18:06;;;;;;;19.55;2.75;;;10.40;99.90;;;;;;5029309;28;20060;-69
2022/04/07 12:20:33;;;;;;;21.98;4.05;;;11.00;99.90;;;;;;5023446;28;20771;-67
2022/04/07 12:23:14;;;;;;;21.23;3.88;;;11.30;99.90;;;;;;5022833;28;20407;-68
2022/04/07 12:25:43;;;;;;;22.80;4.38;;;11.70;99.90;;;;;;5010367;28;21021;-69
2022/04/07 12:28:11;;;;;;;20.50;4.68;;;11.60;99.90;;;;;;5010617;28;20045;-69
2022/04/07 12:30:47;;;;;;;23.20;3.05;;;11.30;99.90;;;;;;5009510;28;20516;-69
2022/04/07 12:33:49;;;;;;;14.18;3.33;;;11.00;99.90;;;;;;5038174;28;20182;-69
2022/04/07 12:36:29;;;;;;;13.90;2.85;;;10.60;99.90;;;;;;5050555;28;20094;-69
2022/04/07 12:39:05;;;;;;;9.00;1.95;;;10.80;99.90;;;;;;5025577;28;20057;-69
2022/04/07 12:41:47;;;;;;;12.90;2.72;;;11.30;99.90;;;;;;5029377;28;20118;-69
2022/04/07 12:44:22;;;;;;;13.95;2.97;;;11.80;99.90;;;;;;5029853;28;20408;-69
2022/04/07 12:46:53;;;;;;;13.18;3.85;;;12.30;99.90;;;;;;5018436;28;20386;-69